sensor_id;sensor_type;location;lat;lon;timestamp;temperature;humidity
41262;DHT22;29629;52.532;13.352;2022-10-04T00:01:49;13.70;99.90
41262;DHT22;29629;52.532;13.352;2022-10-04T00:04:22;13.70;99.90
41262;DHT22;29629;52.532;13.352;2022-10-04T00:06:56;13.70;99.90
41262;DHT22;29629;52.532;13.352;2022-10-04T00:09:25;13.70;99.90
41262;DHT22;29629;52.532;13.352;2022-10-04T00:11:54;13.70;99.90
41262;DHT22;29629;52.532;13.352;2022-10-04T00:14:26;13.70;99.90
41262;DHT22;29629;52.532;13.352;2022-10-04T00:16:54;13.70;99.90
41262;DHT22;29629;52.532;13.352;2022-10-04T00:19:25;13.70;99.90
41262;DHT22;29629;52.532;13.352;2022-10-04T00:22:20;13.70;99.90
41262;DHT22;29629;52.532;13.352;2022-10-04T00:25:16;13.70;99.90
41262;DHT22;29629;52.532;13.352;2022-10-04T00:31:06;13.70;99.90
41262;DHT22;29629;52.532;13.352;2022-10-04T00:33:34;13.60;99.90
41262;DHT22;29629;52.532;13.352;2022-10-04T00:36:35;13.60;99.90
41262;DHT22;29629;52.532;13.352;2022-10-04T00:39:37;13.60;99.90
41262;DHT22;29629;52.532;13.352;2022-10-04T00:42:25;13.60;99.90
41262;DHT22;29629;52.532;13.352;2022-10-04T00:44:58;13.70;99.90
41262;DHT22;29629;52.532;13.352;2022-10-04T00:47:29;13.70;99.90
41262;DHT22;29629;52.532;13.352;2022-10-04T00:50:04;13.70;99.90
41262;DHT22;29629;52.532;13.352;2022-10-04T00:52:35;13.60;99.90
41262;DHT22;29629;52.532;13.352;2022-10-04T00:55:06;13.60;99.90
41262;DHT22;29629;52.532;13.352;2022-10-04T00:57:39;13.70;99.90
41262;DHT22;29629;52.532;13.352;2022-10-04T01:00:11;13.70;99.90
41262;DHT22;29629;52.532;13.352;2022-10-04T01:02:50;13.60;99.90
41262;DHT22;29629;52.532;13.352;2022-10-04T01:05:20;13.70;99.90
41262;DHT22;29629;52.532;13.352;2022-10-04T01:07:53;13.70;99.90
41262;DHT22;29629;52.532;13.352;2022-10-04T01:10:27;13.60;99.90
41262;DHT22;29629;52.532;13.352;2022-10-04T01:13:00;13.60;99.90
41262;DHT22;29629;52.532;13.352;2022-10-04T01:15:35;13.60;99.90
41262;DHT22;29629;52.532;13.352;2022-10-04T01:18:29;13.50;99.90
41262;DHT22;29629;52.532;13.352;2022-10-04T01:20:58;13.50;99.90
41262;DHT22;29629;52.532;13.352;2022-10-04T01:23:40;13.50;99.90
41262;DHT22;29629;52.532;13.352;2022-10-04T01:26:36;13.40;99.90
41262;DHT22;29629;52.532;13.352;2022-10-04T01:29:06;13.30;99.90
41262;DHT22;29629;52.532;13.352;2022-10-04T01:31:36;13.30;99.90
41262;DHT22;29629;52.532;13.352;2022-10-04T01:34:04;13.30;99.90
41262;DHT22;29629;52.532;13.352;2022-10-04T01:36:31;13.30;99.90
41262;DHT22;29629;52.532;13.352;2022-10-04T01:39:00;13.40;99.90
41262;DHT22;29629;52.532;13.352;2022-10-04T01:41:36;13.40;99.90
41262;DHT22;29629;52.532;13.352;2022-10-04T01:44:06;13.40;99.90
41262;DHT22;29629;52.532;13.352;2022-10-04T01:46:36;13.40;99.90
41262;DHT22;29629;52.532;13.352;2022-10-04T01:49:08;13.30;99.90
41262;DHT22;29629;52.532;13.352;2022-10-04T01:51:40;13.20;99.90
41262;DHT22;29629;52.532;13.352;2022-10-04T01:54:12;13.30;99.90
41262;DHT22;29629;52.532;13.352;2022-10-04T01:56:45;13.40;99.90
41262;DHT22;29629;52.532;13.352;2022-10-04T01:59:16;13.30;99.90
41262;DHT22;29629;52.532;13.352;2022-10-04T02:01:48;13.30;99.90
41262;DHT22;29629;52.532;13.352;2022-10-04T02:04:18;13.30;99.90
41262;DHT22;29629;52.532;13.352;2022-10-04T02:06:46;13.30;99.90
41262;DHT22;29629;52.532;13.352;2022-10-04T02:09:19;13.30;99.90
41262;DHT22;29629;52.532;13.352;2022-10-04T02:11:49;13.20;99.90
41262;DHT22;29629;52.532;13.352;2022-10-04T02:14:19;13.20;99.90
41262;DHT22;29629;52.532;13.352;2022-10-04T02:16:47;13.20;99.90
41262;DHT22;29629;52.532;13.352;2022-10-04T02:19:17;13.10;99.90
41262;DHT22;29629;52.532;13.352;2022-10-04T02:21:45;13.10;99.90
41262;DHT22;29629;52.532;13.352;2022-10-04T02:24:14;13.30;99.90
41262;DHT22;29629;52.532;13.352;2022-10-04T02:26:41;13.20;99.90
41262;DHT22;29629;52.532;13.352;2022-10-04T02:29:09;13.20;99.90
41262;DHT22;29629;52.532;13.352;2022-10-04T02:31:37;13.20;99.90
41262;DHT22;29629;52.532;13.352;2022-10-04T02:34:24;13.20;99.90
41262;DHT22;29629;52.532;13.352;2022-10-04T02:36:51;13.20;99.90
41262;DHT22;29629;52.532;13.352;2022-10-04T02:39:23;13.10;99.90
41262;DHT22;29629;52.532;13.352;2022-10-04T02:41:54;13.10;99.90
41262;DHT22;29629;52.532;13.352;2022-10-04T02:44:24;13.10;99.90
41262;DHT22;29629;52.532;13.352;2022-10-04T02:46:56;13.10;99.90
41262;DHT22;29629;52.532;13.352;2022-10-04T02:49:28;13.10;99.90
41262;DHT22;29629;52.532;13.352;2022-10-04T02:52:01;13.10;99.90
41262;DHT22;29629;52.532;13.352;2022-10-04T02:54:34;13.00;99.90
41262;DHT22;29629;52.532;13.352;2022-10-04T02:57:02;12.80;99.90
41262;DHT22;29629;52.532;13.352;2022-10-04T02:59:30;12.80;99.90
41262;DHT22;29629;52.532;13.352;2022-10-04T03:01:59;12.70;99.90
41262;DHT22;29629;52.532;13.352;2022-10-04T03:04:28;12.70;99.90
41262;DHT22;29629;52.532;13.352;2022-10-04T03:06:57;12.70;99.90
41262;DHT22;29629;52.532;13.352;2022-10-04T03:09:25;12.60;99.90
41262;DHT22;29629;52.532;13.352;2022-10-04T03:11:54;12.60;99.90
41262;DHT22;29629;52.532;13.352;2022-10-04T03:14:23;12.60;99.90
41262;DHT22;29629;52.532;13.352;2022-10-04T03:16:52;12.60;99.90
41262;DHT22;29629;52.532;13.352;2022-10-04T03:19:21;12.60;99.90
41262;DHT22;29629;52.532;13.352;2022-10-04T03:21:50;12.50;99.90
41262;DHT22;29629;52.532;13.352;2022-10-04T03:24:20;12.50;99.90
41262;DHT22;29629;52.532;13.352;2022-10-04T03:26:51;12.40;99.90
41262;DHT22;29629;52.532;13.352;2022-10-04T03:29:22;12.40;99.90
41262;DHT22;29629;52.532;13.352;2022-10-04T03:31:51;12.50;99.90
41262;DHT22;29629;52.532;13.352;2022-10-04T03:34:20;12.40;99.90
41262;DHT22;29629;52.532;13.352;2022-10-04T03:36:49;12.30;99.90
41262;DHT22;29629;52.532;13.352;2022-10-04T03:39:23;12.30;99.90
41262;DHT22;29629;52.532;13.352;2022-10-04T03:41:52;12.20;99.90
41262;DHT22;29629;52.532;13.352;2022-10-04T03:44:22;12.10;99.90
41262;DHT22;29629;52.532;13.352;2022-10-04T03:46:49;12.20;99.90
41262;DHT22;29629;52.532;13.352;2022-10-04T03:49:20;12.20;99.90
41262;DHT22;29629;52.532;13.352;2022-10-04T03:51:50;12.10;99.90
41262;DHT22;29629;52.532;13.352;2022-10-04T03:54:22;12.20;99.90
41262;DHT22;29629;52.532;13.352;2022-10-04T03:56:53;12.20;99.90
41262;DHT22;29629;52.532;13.352;2022-10-04T03:59:24;12.20;99.90
41262;DHT22;29629;52.532;13.352;2022-10-04T04:02:02;12.20;99.90
41262;DHT22;29629;52.532;13.352;2022-10-04T04:04:39;12.30;99.90
41262;DHT22;29629;52.532;13.352;2022-10-04T04:07:11;12.30;99.90
41262;DHT22;29629;52.532;13.352;2022-10-04T04:09:43;12.30;99.90
41262;DHT22;29629;52.532;13.352;2022-10-04T04:12:14;12.30;99.90
41262;DHT22;29629;52.532;13.352;2022-10-04T04:14:44;12.40;99.90
41262;DHT22;29629;52.532;13.352;2022-10-04T04:17:37;12.40;99.90
41262;DHT22;29629;52.532;13.352;2022-10-04T04:20:14;12.40;99.90
41262;DHT22;29629;52.532;13.352;2022-10-04T04:22:43;12.40;99.90
41262;DHT22;29629;52.532;13.352;2022-10-04T04:25:14;12.30;99.90
41262;DHT22;29629;52.532;13.352;2022-10-04T04:27:42;12.30;99.90
41262;DHT22;29629;52.532;13.352;2022-10-04T04:30:15;12.20;99.90
41262;DHT22;29629;52.532;13.352;2022-10-04T04:32:46;12.20;99.90
41262;DHT22;29629;52.532;13.352;2022-10-04T04:35:23;12.30;99.90
41262;DHT22;29629;52.532;13.352;2022-10-04T04:38:15;12.20;99.90
41262;DHT22;29629;52.532;13.352;2022-10-04T04:40:43;12.10;99.90
41262;DHT22;29629;52.532;13.352;2022-10-04T04:43:13;12.20;99.90
41262;DHT22;29629;52.532;13.352;2022-10-04T04:45:44;12.20;99.90
41262;DHT22;29629;52.532;13.352;2022-10-04T04:48:15;12.10;99.90
41262;DHT22;29629;52.532;13.352;2022-10-04T04:50:47;12.20;99.90
41262;DHT22;29629;52.532;13.352;2022-10-04T04:53:16;12.10;99.90
41262;DHT22;29629;52.532;13.352;2022-10-04T04:55:47;12.10;99.90
41262;DHT22;29629;52.532;13.352;2022-10-04T04:58:18;12.10;99.90
41262;DHT22;29629;52.532;13.352;2022-10-04T05:00:54;12.10;99.90
41262;DHT22;29629;52.532;13.352;2022-10-04T05:03:21;12.10;99.90
41262;DHT22;29629;52.532;13.352;2022-10-04T05:05:48;12.10;99.90
41262;DHT22;29629;52.532;13.352;2022-10-04T05:08:19;12.00;99.90
41262;DHT22;29629;52.532;13.352;2022-10-04T05:10:50;12.20;99.90
41262;DHT22;29629;52.532;13.352;2022-10-04T05:13:21;12.00;99.90
41262;DHT22;29629;52.532;13.352;2022-10-04T05:15:52;12.00;99.90
41262;DHT22;29629;52.532;13.352;2022-10-04T05:18:27;12.10;99.90
41262;DHT22;29629;52.532;13.352;2022-10-04T05:20:57;12.10;99.90
41262;DHT22;29629;52.532;13.352;2022-10-04T05:23:24;12.20;99.90
41262;DHT22;29629;52.532;13.352;2022-10-04T05:25:51;12.20;99.90
41262;DHT22;29629;52.532;13.352;2022-10-04T05:28:18;12.30;99.90
41262;DHT22;29629;52.532;13.352;2022-10-04T05:30:51;12.30;99.90
41262;DHT22;29629;52.532;13.352;2022-10-04T05:33:22;12.40;99.90
41262;DHT22;29629;52.532;13.352;2022-10-04T05:35:59;12.50;99.90
41262;DHT22;29629;52.532;13.352;2022-10-04T05:38:35;12.50;99.90
41262;DHT22;29629;52.532;13.352;2022-10-04T05:41:07;12.60;99.90
41262;DHT22;29629;52.532;13.352;2022-10-04T05:43:36;12.60;99.90
41262;DHT22;29629;52.532;13.352;2022-10-04T05:46:12;12.70;99.90
41262;DHT22;29629;52.532;13.352;2022-10-04T05:48:41;12.80;99.90
41262;DHT22;29629;52.532;13.352;2022-10-04T05:51:14;12.80;99.90
41262;DHT22;29629;52.532;13.352;2022-10-04T05:53:44;12.90;99.90
41262;DHT22;29629;52.532;13.352;2022-10-04T05:59:10;12.90;99.90
41262;DHT22;29629;52.532;13.352;2022-10-04T06:01:49;13.00;99.90
41262;DHT22;29629;52.532;13.352;2022-10-04T06:04:28;13.00;99.90
41262;DHT22;29629;52.532;13.352;2022-10-04T06:07:00;13.00;99.90
41262;DHT22;29629;52.532;13.352;2022-10-04T06:09:44;13.10;99.90
41262;DHT22;29629;52.532;13.352;2022-10-04T06:12:19;13.20;99.90
41262;DHT22;29629;52.532;13.352;2022-10-04T06:15:05;13.20;99.90
41262;DHT22;29629;52.532;13.352;2022-10-04T06:17:45;13.20;99.90
41262;DHT22;29629;52.532;13.352;2022-10-04T06:20:32;13.30;99.90
41262;DHT22;29629;52.532;13.352;2022-10-04T06:23:12;13.40;99.90
41262;DHT22;29629;52.532;13.352;2022-10-04T06:25:44;13.50;99.90
41262;DHT22;29629;52.532;13.352;2022-10-04T06:28:15;13.70;99.90
41262;DHT22;29629;52.532;13.352;2022-10-04T06:31:13;13.80;99.90
41262;DHT22;29629;52.532;13.352;2022-10-04T06:34:13;13.90;99.90
41262;DHT22;29629;52.532;13.352;2022-10-04T06:37:02;14.00;99.90
41262;DHT22;29629;52.532;13.352;2022-10-04T06:39:52;13.90;99.90
41262;DHT22;29629;52.532;13.352;2022-10-04T06:42:36;13.80;99.90
41262;DHT22;29629;52.532;13.352;2022-10-04T06:45:24;13.70;99.90
41262;DHT22;29629;52.532;13.352;2022-10-04T06:48:07;13.60;99.90
41262;DHT22;29629;52.532;13.352;2022-10-04T06:50:43;13.70;99.90
41262;DHT22;29629;52.532;13.352;2022-10-04T06:53:24;13.70;99.90
41262;DHT22;29629;52.532;13.352;2022-10-04T06:56:14;13.80;99.90
41262;DHT22;29629;52.532;13.352;2022-10-04T06:59:15;13.80;99.90
41262;DHT22;29629;52.532;13.352;2022-10-04T07:01:50;13.70;99.90
41262;DHT22;29629;52.532;13.352;2022-10-04T07:04:27;13.80;99.90
41262;DHT22;29629;52.532;13.352;2022-10-04T07:07:13;13.70;99.90
41262;DHT22;29629;52.532;13.352;2022-10-04T07:09:54;13.70;99.90
41262;DHT22;29629;52.532;13.352;2022-10-04T07:12:23;13.80;99.90
41262;DHT22;29629;52.532;13.352;2022-10-04T07:14:52;13.80;99.90
41262;DHT22;29629;52.532;13.352;2022-10-04T07:17:23;13.80;99.90
41262;DHT22;29629;52.532;13.352;2022-10-04T07:19:53;13.80;99.90
41262;DHT22;29629;52.532;13.352;2022-10-04T07:22:27;13.80;99.90
41262;DHT22;29629;52.532;13.352;2022-10-04T07:25:05;13.90;99.90
41262;DHT22;29629;52.532;13.352;2022-10-04T07:27:41;13.90;99.90
41262;DHT22;29629;52.532;13.352;2022-10-04T07:30:14;13.90;99.90
41262;DHT22;29629;52.532;13.352;2022-10-04T07:32:43;13.90;99.90
41262;DHT22;29629;52.532;13.352;2022-10-04T07:35:17;13.90;99.90
41262;DHT22;29629;52.532;13.352;2022-10-04T07:37:51;13.80;99.90
41262;DHT22;29629;52.532;13.352;2022-10-04T07:40:23;14.10;99.90
41262;DHT22;29629;52.532;13.352;2022-10-04T07:42:53;14.10;99.90
41262;DHT22;29629;52.532;13.352;2022-10-04T07:45:26;14.20;99.90
41262;DHT22;29629;52.532;13.352;2022-10-04T07:48:01;14.10;99.90
41262;DHT22;29629;52.532;13.352;2022-10-04T07:50:33;14.10;99.90
41262;DHT22;29629;52.532;13.352;2022-10-04T07:53:04;14.00;99.90
41262;DHT22;29629;52.532;13.352;2022-10-04T07:55:42;14.00;99.90
41262;DHT22;29629;52.532;13.352;2022-10-04T07:58:26;14.00;99.90
41262;DHT22;29629;52.532;13.352;2022-10-04T08:00:59;14.10;99.90
41262;DHT22;29629;52.532;13.352;2022-10-04T08:03:47;14.20;99.90
41262;DHT22;29629;52.532;13.352;2022-10-04T08:06:20;14.20;99.90
41262;DHT22;29629;52.532;13.352;2022-10-04T08:09:08;14.20;99.90
41262;DHT22;29629;52.532;13.352;2022-10-04T08:11:42;14.20;99.90
41262;DHT22;29629;52.532;13.352;2022-10-04T08:14:24;14.20;99.90
41262;DHT22;29629;52.532;13.352;2022-10-04T08:17:02;14.40;99.90
41262;DHT22;29629;52.532;13.352;2022-10-04T08:19:42;14.50;99.90
41262;DHT22;29629;52.532;13.352;2022-10-04T08:22:19;15.00;99.90
41262;DHT22;29629;52.532;13.352;2022-10-04T08:24:56;15.20;99.90
41262;DHT22;29629;52.532;13.352;2022-10-04T08:27:39;15.20;99.90
41262;DHT22;29629;52.532;13.352;2022-10-04T08:30:42;15.10;99.90
41262;DHT22;29629;52.532;13.352;2022-10-04T08:33:22;15.00;99.90
41262;DHT22;29629;52.532;13.352;2022-10-04T08:36:01;15.00;99.90
41262;DHT22;29629;52.532;13.352;2022-10-04T08:38:43;15.00;99.90
41262;DHT22;29629;52.532;13.352;2022-10-04T08:45:03;15.30;99.90
41262;DHT22;29629;52.532;13.352;2022-10-04T08:57:23;16.90;99.90
41262;DHT22;29629;52.532;13.352;2022-10-04T09:00:10;16.70;99.90
41262;DHT22;29629;52.532;13.352;2022-10-04T09:06:02;16.50;99.90
41262;DHT22;29629;52.532;13.352;2022-10-04T09:18:22;20.50;99.90
41262;DHT22;29629;52.532;13.352;2022-10-04T09:20:56;20.00;99.90
41262;DHT22;29629;52.532;13.352;2022-10-04T09:24:07;20.90;99.90
41262;DHT22;29629;52.532;13.352;2022-10-04T09:26:43;20.90;99.90
41262;DHT22;29629;52.532;13.352;2022-10-04T09:29:29;20.20;99.90
41262;DHT22;29629;52.532;13.352;2022-10-04T09:32:19;18.70;99.90
41262;DHT22;29629;52.532;13.352;2022-10-04T09:35:07;18.30;99.90
41262;DHT22;29629;52.532;13.352;2022-10-04T09:37:55;18.10;99.90
41262;DHT22;29629;52.532;13.352;2022-10-04T09:40:49;18.80;99.90
41262;DHT22;29629;52.532;13.352;2022-10-04T09:46:30;18.70;99.90
41262;DHT22;29629;52.532;13.352;2022-10-04T09:49:16;18.00;99.90
41262;DHT22;29629;52.532;13.352;2022-10-04T09:52:06;18.40;99.90
41262;DHT22;29629;52.532;13.352;2022-10-04T09:58:02;19.50;99.90
41262;DHT22;29629;52.532;13.352;2022-10-04T10:00:36;19.90;99.90
41262;DHT22;29629;52.532;13.352;2022-10-04T10:06:35;20.40;99.90
41262;DHT22;29629;52.532;13.352;2022-10-04T10:09:24;20.40;99.90
41262;DHT22;29629;52.532;13.352;2022-10-04T10:12:31;20.30;99.90
41262;DHT22;29629;52.532;13.352;2022-10-04T10:15:28;21.10;99.90
41262;DHT22;29629;52.532;13.352;2022-10-04T10:18:05;21.50;99.90
41262;DHT22;29629;52.532;13.352;2022-10-04T10:20:53;22.30;99.90
41262;DHT22;29629;52.532;13.352;2022-10-04T10:23:51;21.10;99.90
41262;DHT22;29629;52.532;13.352;2022-10-04T10:26:32;20.70;99.90
41262;DHT22;29629;52.532;13.352;2022-10-04T10:32:30;20.20;99.90
41262;DHT22;29629;52.532;13.352;2022-10-04T10:35:18;20.00;99.90
41262;DHT22;29629;52.532;13.352;2022-10-04T10:38:04;20.90;99.90
41262;DHT22;29629;52.532;13.352;2022-10-04T10:40:55;20.20;99.90
41262;DHT22;29629;52.532;13.352;2022-10-04T10:43:48;19.20;99.90
41262;DHT22;29629;52.532;13.352;2022-10-04T10:46:29;19.10;99.90
41262;DHT22;29629;52.532;13.352;2022-10-04T10:52:32;19.20;99.90
41262;DHT22;29629;52.532;13.352;2022-10-04T10:55:28;18.70;99.90
41262;DHT22;29629;52.532;13.352;2022-10-04T11:00:52;19.30;99.90
41262;DHT22;29629;52.532;13.352;2022-10-04T11:04:03;19.70;99.90
41262;DHT22;29629;52.532;13.352;2022-10-04T11:07:02;21.00;99.90
41262;DHT22;29629;52.532;13.352;2022-10-04T11:09:55;20.60;99.90
41262;DHT22;29629;52.532;13.352;2022-10-04T11:12:44;20.80;99.90
41262;DHT22;29629;52.532;13.352;2022-10-04T11:15:37;20.50;99.90
41262;DHT22;29629;52.532;13.352;2022-10-04T11:21:21;19.60;99.90
41262;DHT22;29629;52.532;13.352;2022-10-04T11:27:27;18.90;99.90
41262;DHT22;29629;52.532;13.352;2022-10-04T11:30:16;19.00;99.90
41262;DHT22;29629;52.532;13.352;2022-10-04T11:33:20;19.70;99.90
41262;DHT22;29629;52.532;13.352;2022-10-04T11:36:26;19.50;99.90
41262;DHT22;29629;52.532;13.352;2022-10-04T11:39:22;19.50;99.90
41262;DHT22;29629;52.532;13.352;2022-10-04T11:42:02;20.90;99.90
41262;DHT22;29629;52.532;13.352;2022-10-04T11:44:53;20.70;99.90
41262;DHT22;29629;52.532;13.352;2022-10-04T11:47:38;20.30;99.90
41262;DHT22;29629;52.532;13.352;2022-10-04T11:50:32;20.00;99.90
41262;DHT22;29629;52.532;13.352;2022-10-04T11:53:30;19.90;99.90
41262;DHT22;29629;52.532;13.352;2022-10-04T11:59:18;19.40;99.90
41262;DHT22;29629;52.532;13.352;2022-10-04T12:02:05;19.20;99.90
41262;DHT22;29629;52.532;13.352;2022-10-04T12:04:54;19.30;99.90
41262;DHT22;29629;52.532;13.352;2022-10-04T12:07:52;19.80;99.90
41262;DHT22;29629;52.532;13.352;2022-10-04T12:10:28;20.30;99.90
41262;DHT22;29629;52.532;13.352;2022-10-04T12:16:10;22.00;99.90
41262;DHT22;29629;52.532;13.352;2022-10-04T12:28:20;24.50;99.90
41262;DHT22;29629;52.532;13.352;2022-10-04T12:31:12;25.40;99.90
41262;DHT22;29629;52.532;13.352;2022-10-04T12:33:45;26.30;99.90
41262;DHT22;29629;52.532;13.352;2022-10-04T12:36:38;26.20;99.90
41262;DHT22;29629;52.532;13.352;2022-10-04T12:39:31;25.80;99.90
41262;DHT22;29629;52.532;13.352;2022-10-04T12:42:10;25.20;99.90
41262;DHT22;29629;52.532;13.352;2022-10-04T12:44:48;25.00;99.90
41262;DHT22;29629;52.532;13.352;2022-10-04T12:50:33;23.90;99.90
41262;DHT22;29629;52.532;13.352;2022-10-04T12:53:15;23.40;99.90
41262;DHT22;29629;52.532;13.352;2022-10-04T12:56:00;22.70;99.90
41262;DHT22;29629;52.532;13.352;2022-10-04T12:58:40;22.30;99.90
41262;DHT22;29629;52.532;13.352;2022-10-04T13:01:16;21.90;99.90
41262;DHT22;29629;52.532;13.352;2022-10-04T13:06:56;22.50;99.90
41262;DHT22;29629;52.532;13.352;2022-10-04T13:09:32;22.10;99.90
41262;DHT22;29629;52.532;13.352;2022-10-04T13:12:10;22.30;99.90
41262;DHT22;29629;52.532;13.352;2022-10-04T13:14:53;21.90;99.90
41262;DHT22;29629;52.532;13.352;2022-10-04T13:17:36;20.40;99.90
41262;DHT22;29629;52.532;13.352;2022-10-04T13:20:43;20.60;99.90
41262;DHT22;29629;52.532;13.352;2022-10-04T13:23:20;19.90;99.90
41262;DHT22;29629;52.532;13.352;2022-10-04T13:26:07;19.90;99.90
41262;DHT22;29629;52.532;13.352;2022-10-04T13:28:45;19.80;99.90
41262;DHT22;29629;52.532;13.352;2022-10-04T13:31:20;19.90;99.90
41262;DHT22;29629;52.532;13.352;2022-10-04T13:33:54;19.90;99.90
41262;DHT22;29629;52.532;13.352;2022-10-04T13:36:29;19.80;99.90
41262;DHT22;29629;52.532;13.352;2022-10-04T13:39:27;19.70;99.90
41262;DHT22;29629;52.532;13.352;2022-10-04T13:42:16;20.20;99.90
41262;DHT22;29629;52.532;13.352;2022-10-04T13:48:09;20.50;99.90
41262;DHT22;29629;52.532;13.352;2022-10-04T13:51:01;20.20;99.90
41262;DHT22;29629;52.532;13.352;2022-10-04T13:53:38;19.50;99.90
41262;DHT22;29629;52.532;13.352;2022-10-04T13:56:52;19.50;99.90
41262;DHT22;29629;52.532;13.352;2022-10-04T13:59:28;19.70;99.90
41262;DHT22;29629;52.532;13.352;2022-10-04T14:02:29;19.80;99.90
41262;DHT22;29629;52.532;13.352;2022-10-04T14:05:25;19.80;99.90
41262;DHT22;29629;52.532;13.352;2022-10-04T14:08:19;19.60;99.90
41262;DHT22;29629;52.532;13.352;2022-10-04T14:11:00;19.50;99.90
41262;DHT22;29629;52.532;13.352;2022-10-04T14:13:54;19.40;99.90
41262;DHT22;29629;52.532;13.352;2022-10-04T14:20:05;19.20;99.90
41262;DHT22;29629;52.532;13.352;2022-10-04T14:23:03;18.90;99.90
41262;DHT22;29629;52.532;13.352;2022-10-04T14:26:06;18.60;99.90
41262;DHT22;29629;52.532;13.352;2022-10-04T14:32:43;18.40;99.90
41262;DHT22;29629;52.532;13.352;2022-10-04T14:35:20;18.40;99.90
41262;DHT22;29629;52.532;13.352;2022-10-04T14:41:21;18.10;99.90
41262;DHT22;29629;52.532;13.352;2022-10-04T14:44:11;18.10;99.90
41262;DHT22;29629;52.532;13.352;2022-10-04T14:46:51;18.10;99.90
41262;DHT22;29629;52.532;13.352;2022-10-04T14:49:25;18.10;99.90
41262;DHT22;29629;52.532;13.352;2022-10-04T14:52:14;18.10;99.90
41262;DHT22;29629;52.532;13.352;2022-10-04T14:54:51;18.00;99.90
41262;DHT22;29629;52.532;13.352;2022-10-04T15:00:14;17.90;99.90
41262;DHT22;29629;52.532;13.352;2022-10-04T15:02:53;17.90;99.90
41262;DHT22;29629;52.532;13.352;2022-10-04T15:05:38;17.80;99.90
41262;DHT22;29629;52.532;13.352;2022-10-04T15:08:32;17.80;99.90
41262;DHT22;29629;52.532;13.352;2022-10-04T15:11:05;17.80;99.90
41262;DHT22;29629;52.532;13.352;2022-10-04T15:13:38;17.60;99.90
41262;DHT22;29629;52.532;13.352;2022-10-04T15:16:12;17.70;99.90
41262;DHT22;29629;52.532;13.352;2022-10-04T15:18:49;17.70;99.90
41262;DHT22;29629;52.532;13.352;2022-10-04T15:21:34;17.70;99.90
41262;DHT22;29629;52.532;13.352;2022-10-04T15:24:26;17.70;99.90
41262;DHT22;29629;52.532;13.352;2022-10-04T15:30:05;17.60;99.90
41262;DHT22;29629;52.532;13.352;2022-10-04T15:32:37;17.60;99.90
41262;DHT22;29629;52.532;13.352;2022-10-04T15:35:19;17.60;99.90
41262;DHT22;29629;52.532;13.352;2022-10-04T15:37:54;17.60;99.90
41262;DHT22;29629;52.532;13.352;2022-10-04T15:40:32;17.50;99.90
41262;DHT22;29629;52.532;13.352;2022-10-04T15:43:21;17.50;99.90
41262;DHT22;29629;52.532;13.352;2022-10-04T15:46:34;17.40;99.90
41262;DHT22;29629;52.532;13.352;2022-10-04T15:52:37;17.40;99.90
41262;DHT22;29629;52.532;13.352;2022-10-04T15:55:19;17.30;99.90
41262;DHT22;29629;52.532;13.352;2022-10-04T15:58:21;17.20;99.90
41262;DHT22;29629;52.532;13.352;2022-10-04T16:01:05;17.20;99.90
41262;DHT22;29629;52.532;13.352;2022-10-04T16:03:43;17.20;99.90
41262;DHT22;29629;52.532;13.352;2022-10-04T16:06:20;17.10;99.90
41262;DHT22;29629;52.532;13.352;2022-10-04T16:09:09;17.00;99.90
41262;DHT22;29629;52.532;13.352;2022-10-04T16:12:06;17.00;99.90
41262;DHT22;29629;52.532;13.352;2022-10-04T16:14:56;16.90;99.90
41262;DHT22;29629;52.532;13.352;2022-10-04T16:23:32;16.70;99.90
41262;DHT22;29629;52.532;13.352;2022-10-04T16:26:02;16.70;99.90
41262;DHT22;29629;52.532;13.352;2022-10-04T16:28:46;16.60;99.90
41262;DHT22;29629;52.532;13.352;2022-10-04T16:31:23;16.50;99.90
41262;DHT22;29629;52.532;13.352;2022-10-04T16:33:57;16.50;99.90
41262;DHT22;29629;52.532;13.352;2022-10-04T16:36:43;16.40;99.90
41262;DHT22;29629;52.532;13.352;2022-10-04T16:39:11;16.40;99.90
41262;DHT22;29629;52.532;13.352;2022-10-04T16:42:00;16.30;99.90
41262;DHT22;29629;52.532;13.352;2022-10-04T16:44:35;16.30;99.90
41262;DHT22;29629;52.532;13.352;2022-10-04T16:47:17;16.30;99.90
41262;DHT22;29629;52.532;13.352;2022-10-04T16:49:48;16.20;99.90
41262;DHT22;29629;52.532;13.352;2022-10-04T16:52:44;16.20;99.90
41262;DHT22;29629;52.532;13.352;2022-10-04T16:55:42;16.10;99.90
41262;DHT22;29629;52.532;13.352;2022-10-04T16:58:42;16.10;99.90
41262;DHT22;29629;52.532;13.352;2022-10-04T17:01:40;16.00;99.90
41262;DHT22;29629;52.532;13.352;2022-10-04T17:04:24;16.00;99.90
41262;DHT22;29629;52.532;13.352;2022-10-04T17:06:56;15.90;99.90
41262;DHT22;29629;52.532;13.352;2022-10-04T17:09:28;15.90;99.90
41262;DHT22;29629;52.532;13.352;2022-10-04T17:12:04;15.80;99.90
41262;DHT22;29629;52.532;13.352;2022-10-04T17:14:55;15.80;99.90
41262;DHT22;29629;52.532;13.352;2022-10-04T17:17:32;15.80;99.90
41262;DHT22;29629;52.532;13.352;2022-10-04T17:20:05;15.70;99.90
41262;DHT22;29629;52.532;13.352;2022-10-04T17:22:42;15.70;99.90
41262;DHT22;29629;52.532;13.352;2022-10-04T17:25:25;15.70;99.90
41262;DHT22;29629;52.532;13.352;2022-10-04T17:28:02;15.60;99.90
41262;DHT22;29629;52.532;13.352;2022-10-04T17:30:46;15.50;99.90
41262;DHT22;29629;52.532;13.352;2022-10-04T17:33:22;15.50;99.90
41262;DHT22;29629;52.532;13.352;2022-10-04T17:36:16;15.40;99.90
41262;DHT22;29629;52.532;13.352;2022-10-04T17:38:56;15.30;99.90
41262;DHT22;29629;52.532;13.352;2022-10-04T17:41:48;15.30;99.90
41262;DHT22;29629;52.532;13.352;2022-10-04T17:44:35;15.20;99.90
41262;DHT22;29629;52.532;13.352;2022-10-04T17:47:06;15.20;99.90
41262;DHT22;29629;52.532;13.352;2022-10-04T17:49:45;15.20;99.90
41262;DHT22;29629;52.532;13.352;2022-10-04T17:52:42;15.10;99.90
41262;DHT22;29629;52.532;13.352;2022-10-04T17:55:35;15.10;99.90
41262;DHT22;29629;52.532;13.352;2022-10-04T17:58:13;15.00;99.90
41262;DHT22;29629;52.532;13.352;2022-10-04T18:00:54;15.00;99.90
41262;DHT22;29629;52.532;13.352;2022-10-04T18:03:29;15.00;99.90
41262;DHT22;29629;52.532;13.352;2022-10-04T18:06:02;15.00;99.90
41262;DHT22;29629;52.532;13.352;2022-10-04T18:08:42;14.90;99.90
41262;DHT22;29629;52.532;13.352;2022-10-04T18:11:17;14.90;99.90
41262;DHT22;29629;52.532;13.352;2022-10-04T18:13:53;14.80;99.90
41262;DHT22;29629;52.532;13.352;2022-10-04T18:16:25;14.80;99.90
41262;DHT22;29629;52.532;13.352;2022-10-04T18:18:53;14.80;99.90